createdAt,value
2023-03-29T00:01:11.253Z,7.34
2023-03-29T00:04:16.776Z,7.30
2023-03-29T00:07:05.787Z,7.29
2023-03-29T00:09:37.228Z,7.27
2023-03-29T00:12:07.461Z,7.26
2023-03-29T00:14:37.451Z,7.26
2023-03-29T00:17:08.492Z,7.25
2023-03-29T00:19:37.762Z,7.25
2023-03-29T00:22:30.570Z,7.26
2023-03-29T00:28:05.640Z,7.21
2023-03-29T00:30:35.533Z,7.21
2023-03-29T00:33:39.539Z,7.17
2023-03-29T00:36:40.709Z,7.16
2023-03-29T00:39:11.353Z,7.15
2023-03-29T00:41:57.487Z,7.12
2023-03-29T00:45:36.603Z,7.12
2023-03-29T00:48:19.461Z,7.11
2023-03-29T00:50:56.184Z,7.12
2023-03-29T00:53:36.100Z,7.13
2023-03-29T00:56:41.859Z,7.15
2023-03-29T00:59:16.125Z,7.18
2023-03-29T01:01:55.230Z,7.19
2023-03-29T01:04:52.942Z,7.18
2023-03-29T01:07:39.544Z,7.18
2023-03-29T01:10:14.686Z,7.20
2023-03-29T01:12:50.092Z,7.21
2023-03-29T01:15:26.515Z,7.22
2023-03-29T01:18:16.744Z,7.24
2023-03-29T01:21:30.617Z,7.24
2023-03-29T01:24:39.474Z,7.22
2023-03-29T01:30:43.887Z,7.24
2023-03-29T01:33:54.244Z,7.25
2023-03-29T01:36:35.368Z,7.27
2023-03-29T01:39:07.624Z,7.27
2023-03-29T01:41:53.708Z,7.27
2023-03-29T01:44:37.254Z,7.27
2023-03-29T01:47:17.568Z,7.27
2023-03-29T01:50:01.303Z,7.29
2023-03-29T01:52:37.444Z,7.29
2023-03-29T01:55:13.774Z,7.30
2023-03-29T01:57:48.085Z,7.31
2023-03-29T02:00:36.491Z,7.30
2023-03-29T02:03:31.401Z,7.30
2023-03-29T02:06:06.008Z,7.30
2023-03-29T02:08:35.943Z,7.31
2023-03-29T02:11:26.751Z,7.33
2023-03-29T02:14:33.987Z,7.32
2023-03-29T02:17:18.575Z,7.30
2023-03-29T02:19:58.646Z,7.31
2023-03-29T02:22:57.564Z,7.30
2023-03-29T02:25:46.020Z,7.34
2023-03-29T02:28:23.735Z,7.32
2023-03-29T02:31:09.031Z,7.32
2023-03-29T02:33:52.576Z,7.34
2023-03-29T02:36:39.234Z,7.32
2023-03-29T02:39:14.186Z,7.32
2023-03-29T02:41:48.886Z,7.33
2023-03-29T02:44:39.044Z,7.34
2023-03-29T02:47:17.652Z,7.35
2023-03-29T02:49:50.030Z,7.35
2023-03-29T02:52:33.759Z,7.35
2023-03-29T02:55:06.699Z,7.36
2023-03-29T02:57:39.829Z,7.37
2023-03-29T03:01:11.992Z,7.35
2023-03-29T03:03:43.563Z,7.35
2023-03-29T03:06:19.018Z,7.38
2023-03-29T03:08:54.389Z,7.39
2023-03-29T03:11:30.198Z,7.39
2023-03-29T03:14:01.581Z,7.40
2023-03-29T03:17:11.836Z,7.38
2023-03-29T03:19:43.666Z,7.42
2023-03-29T03:22:15.096Z,7.42
2023-03-29T03:24:46.470Z,7.42
2023-03-29T03:27:16.689Z,7.43
2023-03-29T03:29:57.723Z,7.44
2023-03-29T03:33:01.671Z,7.44
2023-03-29T03:36:06.186Z,7.43
2023-03-29T03:38:43.217Z,7.44
2023-03-29T03:41:13.777Z,7.45
2023-03-29T03:43:46.436Z,7.46
2023-03-29T03:46:16.875Z,7.48
2023-03-29T03:48:47.373Z,7.48
2023-03-29T03:51:16.598Z,7.48
2023-03-29T03:54:01.401Z,7.47
2023-03-29T03:56:50.076Z,7.47
2023-03-29T03:59:20.551Z,7.48
2023-03-29T04:01:49.679Z,7.49
2023-03-29T04:04:19.997Z,7.50
2023-03-29T04:07:04.579Z,7.49
2023-03-29T04:09:41.370Z,7.49
2023-03-29T04:12:13.396Z,7.50
2023-03-29T04:14:43.010Z,7.52
2023-03-29T04:17:15.864Z,7.52
2023-03-29T04:19:48.141Z,7.54
2023-03-29T04:22:18.382Z,7.55
2023-03-29T04:24:49.142Z,7.56
2023-03-29T04:28:10.604Z,7.52
2023-03-29T04:30:42.453Z,7.53
2023-03-29T04:33:12.234Z,7.55
2023-03-29T04:35:43.894Z,7.57
2023-03-29T04:38:13.192Z,7.59
2023-03-29T04:40:44.240Z,7.61
2023-03-29T04:43:15.760Z,7.62
2023-03-29T04:45:45.005Z,7.64
2023-03-29T04:48:13.860Z,7.64
2023-03-29T04:51:04.082Z,7.64
2023-03-29T04:54:39.860Z,7.60
2023-03-29T04:57:11.651Z,7.64
2023-03-29T04:59:43.367Z,7.66
2023-03-29T05:02:14.303Z,7.67
2023-03-29T05:04:44.818Z,7.68
2023-03-29T05:07:35.749Z,7.69
2023-03-29T05:10:31.743Z,7.69
2023-03-29T05:13:04.992Z,7.71
2023-03-29T05:15:36.379Z,7.72
2023-03-29T05:18:27.493Z,7.71
2023-03-29T05:21:02.489Z,7.75
2023-03-29T05:23:32.359Z,7.77
2023-03-29T05:26:36.904Z,7.77
2023-03-29T05:29:44.527Z,7.76
2023-03-29T05:32:19.048Z,7.77
2023-03-29T05:35:10.794Z,7.75
2023-03-29T05:38:10.217Z,7.72
2023-03-29T05:40:41.648Z,7.77
2023-03-29T05:43:11.360Z,7.78
2023-03-29T05:45:42.529Z,7.78
2023-03-29T05:48:14.035Z,7.81
2023-03-29T05:50:46.255Z,7.82
2023-03-29T05:53:16.375Z,7.85
2023-03-29T05:55:53.843Z,7.85
2023-03-29T05:58:31.288Z,7.87
2023-03-29T06:01:26.386Z,7.85
2023-03-29T06:04:03.929Z,7.84
2023-03-29T06:06:33.059Z,7.86
2023-03-29T06:09:37.185Z,7.84
2023-03-29T06:12:07.754Z,7.87
2023-03-29T06:14:37.691Z,7.90
2023-03-29T06:17:16.814Z,7.90
2023-03-29T06:19:47.856Z,7.92
2023-03-29T06:22:16.959Z,7.94
2023-03-29T06:24:46.467Z,7.93
2023-03-29T06:27:15.969Z,7.88
2023-03-29T06:29:45.579Z,7.88
2023-03-29T06:32:22.239Z,7.93
2023-03-29T06:34:55.973Z,7.99
2023-03-29T06:37:49.877Z,8.01
2023-03-29T06:40:48.532Z,8.02
2023-03-29T06:43:18.173Z,8.06
2023-03-29T06:45:47.522Z,8.11
2023-03-29T06:48:18.152Z,8.17
2023-03-29T06:50:50.058Z,8.22
2023-03-29T06:53:43.684Z,8.26
2023-03-29T06:56:14.904Z,8.26
2023-03-29T06:58:45.472Z,8.21
2023-03-29T07:01:15.751Z,8.19
2023-03-29T07:03:46.800Z,8.21
2023-03-29T07:06:22.220Z,8.26
2023-03-29T07:08:52.917Z,8.33
2023-03-29T07:11:41.813Z,8.40
2023-03-29T07:14:12.527Z,8.49
2023-03-29T07:16:42.745Z,8.55
2023-03-29T07:19:36.083Z,8.63
2023-03-29T07:22:08.619Z,8.71
2023-03-29T07:24:38.589Z,8.71
2023-03-29T07:27:42.015Z,8.71
2023-03-29T07:30:17.082Z,8.79
2023-03-29T07:32:48.503Z,8.90
2023-03-29T07:35:37.020Z,8.95
2023-03-29T07:38:10.271Z,9.02
2023-03-29T07:40:41.233Z,9.09
2023-03-29T07:43:42.623Z,9.13
2023-03-29T07:46:13.913Z,9.22
2023-03-29T07:48:45.922Z,9.30
2023-03-29T07:51:24.446Z,9.41
2023-03-29T07:54:00.408Z,9.56
2023-03-29T07:56:32.765Z,9.65
2023-03-29T07:59:19.737Z,9.73
2023-03-29T08:01:52.131Z,9.77
2023-03-29T08:04:22.987Z,9.86
2023-03-29T08:06:59.084Z,9.90
2023-03-29T08:09:35.540Z,9.94
2023-03-29T08:12:09.835Z,10.01
2023-03-29T08:14:38.628Z,10.06
2023-03-29T08:17:07.310Z,10.12
2023-03-29T08:19:35.884Z,10.21
2023-03-29T08:22:05.153Z,10.27
2023-03-29T08:24:35.086Z,10.32
2023-03-29T08:27:04.309Z,10.32
2023-03-29T08:29:32.693Z,10.34
2023-03-29T08:32:02.212Z,10.38
2023-03-29T08:34:31.920Z,10.45
2023-03-29T08:37:00.800Z,10.49
2023-03-29T08:39:30.044Z,10.50
2023-03-29T08:42:16.382Z,10.57
2023-03-29T08:45:00.346Z,10.80
2023-03-29T08:47:40.249Z,10.95
2023-03-29T08:50:12.364Z,11.06
2023-03-29T08:52:44.403Z,11.31
2023-03-29T08:55:26.205Z,11.50
2023-03-29T08:57:57.563Z,11.52
2023-03-29T09:00:35.618Z,11.55
2023-03-29T09:03:11.466Z,11.74
2023-03-29T09:05:46.159Z,11.95
2023-03-29T09:08:17.821Z,12.14
2023-03-29T09:10:50.153Z,12.24
2023-03-29T09:13:42.527Z,12.18
2023-03-29T09:16:22.058Z,12.05
2023-03-29T09:19:11.198Z,11.94
2023-03-29T09:21:46.688Z,11.96
2023-03-29T09:24:34.759Z,12.14
2023-03-29T09:27:11.039Z,12.25
2023-03-29T09:29:56.641Z,12.33
2023-03-29T09:32:33.056Z,12.39
2023-03-29T09:35:18.313Z,12.42
2023-03-29T09:37:49.501Z,12.46
2023-03-29T09:40:23.591Z,12.53
2023-03-29T09:42:56.109Z,12.70
2023-03-29T09:45:26.398Z,12.92
2023-03-29T09:48:01.379Z,13.11
2023-03-29T09:50:35.474Z,13.28
2023-03-29T09:53:05.108Z,13.39
2023-03-29T09:55:36.502Z,13.39
2023-03-29T09:58:15.861Z,13.37
2023-03-29T10:00:46.344Z,13.39
2023-03-29T10:03:21.435Z,13.29
2023-03-29T10:05:53.285Z,13.28
2023-03-29T10:08:28.219Z,13.27
2023-03-29T10:10:59.704Z,13.32
2023-03-29T10:13:32.648Z,13.38
2023-03-29T10:16:09.280Z,13.40
2023-03-29T10:18:43.177Z,13.48
2023-03-29T10:21:16.734Z,13.68
2023-03-29T10:23:45.441Z,13.87
2023-03-29T10:26:26.803Z,13.88
2023-03-29T10:28:57.373Z,13.90
2023-03-29T10:31:30.264Z,13.96
2023-03-29T10:34:03.902Z,14.01
2023-03-29T10:36:32.697Z,14.01
2023-03-29T10:39:05.755Z,13.95
2023-03-29T10:41:36.461Z,13.84
2023-03-29T10:44:05.611Z,13.82
2023-03-29T10:46:43.344Z,13.96
2023-03-29T10:49:22.182Z,14.18
2023-03-29T10:51:51.928Z,14.31
2023-03-29T10:54:25.035Z,14.33
2023-03-29T10:56:57.865Z,14.38
2023-03-29T10:59:30.873Z,14.41
2023-03-29T11:02:51.899Z,14.42
2023-03-29T11:05:29.453Z,14.42
2023-03-29T11:08:32.712Z,14.48
2023-03-29T11:11:13.369Z,14.58
2023-03-29T11:13:52.632Z,14.72
2023-03-29T11:16:32.377Z,14.89
2023-03-29T11:19:26.599Z,15.13
2023-03-29T11:22:03.114Z,15.38
2023-03-29T11:24:50.700Z,15.69
2023-03-29T11:27:30.977Z,15.83
2023-03-29T11:30:10.057Z,16.08
2023-03-29T11:32:53.318Z,16.37
2023-03-29T11:35:46.715Z,16.54
2023-03-29T11:38:25.098Z,16.64
2023-03-29T11:41:02.230Z,16.71
2023-03-29T11:43:37.016Z,16.74
2023-03-29T11:46:13.411Z,16.88
2023-03-29T11:48:49.467Z,17.01
2023-03-29T11:51:26.344Z,17.10
2023-03-29T11:54:04.422Z,17.16
2023-03-29T11:56:39.242Z,17.34
2023-03-29T11:59:17.047Z,17.42
2023-03-29T12:01:50.113Z,17.33
2023-03-29T12:04:28.509Z,17.26
2023-03-29T12:07:10.761Z,17.23
2023-03-29T12:09:42.964Z,17.21
2023-03-29T12:12:18.490Z,17.25
2023-03-29T12:14:58.319Z,17.25
2023-03-29T12:17:33.042Z,17.26
2023-03-29T12:20:16.838Z,17.20
2023-03-29T12:22:49.106Z,17.32
2023-03-29T12:25:23.223Z,17.32
2023-03-29T12:28:08.175Z,17.26
2023-03-29T12:30:52.525Z,17.38
2023-03-29T12:34:04.941Z,17.70
2023-03-29T12:37:02.092Z,17.92
2023-03-29T12:39:33.416Z,18.17
2023-03-29T12:42:18.321Z,18.54
2023-03-29T12:44:51.006Z,18.67
2023-03-29T12:47:25.069Z,18.79
2023-03-29T12:49:57.419Z,18.80
2023-03-29T12:52:31.847Z,18.79
2023-03-29T12:55:05.630Z,18.85
2023-03-29T12:57:43.200Z,18.83
2023-03-29T13:00:22.278Z,18.72
2023-03-29T13:03:03.022Z,18.58
2023-03-29T13:05:36.363Z,18.62
2023-03-29T13:08:29.328Z,18.70
2023-03-29T13:11:00.104Z,18.68
2023-03-29T13:13:32.159Z,18.50
2023-03-29T13:16:15.936Z,18.38
2023-03-29T13:19:28.543Z,18.33
2023-03-29T13:22:12.109Z,18.24
2023-03-29T13:25:06.240Z,18.11
2023-03-29T13:27:46.750Z,17.90
2023-03-29T13:30:35.884Z,17.70
2023-03-29T13:33:23.622Z,17.54
2023-03-29T13:36:01.986Z,17.40
2023-03-29T13:38:33.281Z,17.37
2023-03-29T13:41:05.510Z,17.36
2023-03-29T13:43:53.886Z,17.39
2023-03-29T13:46:27.513Z,17.47
2023-03-29T13:49:03.682Z,17.44
2023-03-29T13:52:04.132Z,17.48
2023-03-29T13:54:37.678Z,17.53
2023-03-29T13:57:15.496Z,17.49
2023-03-29T13:59:57.658Z,17.48
2023-03-29T14:02:42.957Z,17.54
2023-03-29T14:05:16.497Z,17.66
2023-03-29T14:07:51.373Z,17.79
2023-03-29T14:10:25.178Z,17.85
2023-03-29T14:12:57.938Z,17.87
2023-03-29T14:15:42.807Z,17.86
2023-03-29T14:18:13.204Z,17.94
2023-03-29T14:20:46.410Z,18.07
2023-03-29T14:23:21.351Z,18.24
2023-03-29T14:25:53.051Z,18.36
2023-03-29T14:28:26.419Z,18.44
2023-03-29T14:30:57.825Z,18.44
2023-03-29T14:33:28.952Z,18.59
2023-03-29T14:36:00.919Z,18.66
2023-03-29T14:38:31.474Z,18.55
2023-03-29T14:41:02.382Z,18.52
2023-03-29T14:43:32.673Z,18.80
2023-03-29T14:46:06.647Z,18.92
2023-03-29T14:48:36.066Z,18.72
2023-03-29T14:51:06.090Z,18.61
2023-03-29T14:53:37.126Z,18.47
2023-03-29T14:56:07.080Z,18.23
2023-03-29T14:58:37.195Z,18.05
2023-03-29T15:01:15.752Z,18.00
2023-03-29T15:03:46.239Z,17.86
2023-03-29T15:06:15.843Z,17.88
2023-03-29T15:09:01.531Z,17.85
2023-03-29T15:11:34.141Z,17.89
2023-03-29T15:14:06.657Z,17.95
2023-03-29T15:16:40.861Z,17.94
2023-03-29T15:19:17.133Z,17.89
2023-03-29T15:21:47.951Z,17.74
2023-03-29T15:24:25.147Z,17.59
2023-03-29T15:27:03.549Z,17.53
2023-03-29T15:29:42.233Z,17.67
2023-03-29T15:32:22.673Z,17.97
2023-03-29T15:35:06.274Z,18.15
2023-03-29T15:37:35.140Z,18.09
2023-03-29T15:40:10.014Z,17.90
2023-03-29T15:42:39.478Z,17.79
2023-03-29T15:45:14.440Z,17.69
2023-03-29T15:47:44.241Z,17.53
2023-03-29T15:50:12.826Z,17.35
2023-03-29T15:52:41.616Z,17.19
2023-03-29T15:55:11.608Z,17.05
2023-03-29T15:57:49.440Z,16.98
2023-03-29T16:00:19.433Z,16.86
2023-03-29T16:02:51.326Z,16.82
2023-03-29T16:05:20.294Z,16.73
2023-03-29T16:07:49.132Z,16.67
2023-03-29T16:10:17.824Z,16.63
2023-03-29T16:12:46.631Z,16.51
2023-03-29T16:15:21.293Z,16.36
2023-03-29T16:17:51.244Z,16.25
2023-03-29T16:20:21.146Z,16.19
2023-03-29T16:22:51.544Z,16.12
2023-03-29T16:25:23.516Z,16.01
2023-03-29T16:27:54.329Z,15.91
2023-03-29T16:30:24.977Z,15.79
2023-03-29T16:32:55.235Z,15.70
2023-03-29T16:35:30.223Z,15.61
2023-03-29T16:37:59.437Z,15.56
2023-03-29T16:40:28.218Z,15.46
2023-03-29T16:42:57.490Z,15.37
2023-03-29T16:45:26.625Z,15.31
2023-03-29T16:47:57.572Z,15.28
2023-03-29T16:50:26.632Z,15.23
2023-03-29T16:52:55.332Z,15.16
2023-03-29T16:55:25.175Z,15.11
2023-03-29T16:57:55.242Z,15.08
2023-03-29T17:00:25.098Z,15.06
2023-03-29T17:02:56.679Z,15.06
2023-03-29T17:05:25.397Z,15.04
2023-03-29T17:07:56.194Z,15.00
2023-03-29T17:10:26.655Z,14.94
2023-03-29T17:12:56.166Z,14.87
2023-03-29T17:15:24.978Z,14.76
2023-03-29T17:17:55.348Z,14.70
2023-03-29T17:20:26.750Z,14.66
2023-03-29T17:22:56.249Z,14.62
2023-03-29T17:25:25.157Z,14.57
2023-03-29T17:27:54.131Z,14.52
2023-03-29T17:30:23.900Z,14.46
2023-03-29T17:32:52.590Z,14.42
2023-03-29T17:35:24.911Z,14.35
2023-03-29T17:37:55.190Z,14.29
2023-03-29T17:40:24.033Z,14.26
2023-03-29T17:42:52.788Z,14.25
2023-03-29T17:45:22.445Z,14.23
2023-03-29T17:47:51.303Z,14.16
2023-03-29T17:50:23.557Z,14.07
2023-03-29T17:52:52.400Z,14.01
2023-03-29T17:55:21.561Z,13.96
2023-03-29T17:57:50.096Z,13.91
2023-03-29T18:00:20.121Z,13.87
2023-03-29T18:02:48.884Z,13.84
2023-03-29T18:05:18.055Z,13.81
2023-03-29T18:07:47.883Z,13.81
2023-03-29T18:10:16.422Z,13.76
2023-03-29T18:12:46.340Z,13.73
2023-03-29T18:15:14.942Z,13.71
2023-03-29T18:17:43.739Z,13.70
2023-03-29T18:20:14.063Z,13.67
2023-03-29T18:22:43.462Z,13.64
2023-03-29T18:25:14.642Z,13.61
2023-03-29T18:27:43.401Z,13.59
2023-03-29T18:30:13.955Z,13.59
2023-03-29T18:32:42.718Z,13.54
2023-03-29T18:35:12.249Z,13.47
2023-03-29T18:37:42.936Z,13.42
2023-03-29T18:40:13.793Z,13.39
2023-03-29T18:42:42.783Z,13.36
2023-03-29T18:45:12.821Z,13.36
2023-03-29T18:47:47.667Z,13.35
2023-03-29T18:50:16.286Z,13.34
2023-03-29T18:52:46.042Z,13.33
2023-03-29T18:55:16.326Z,13.30
2023-03-29T18:57:44.698Z,13.30
2023-03-29T19:00:14.166Z,13.32
2023-03-29T19:02:43.278Z,13.32
2023-03-29T19:05:12.137Z,13.35
2023-03-29T19:07:40.985Z,13.34
2023-03-29T19:10:10.687Z,13.34
2023-03-29T19:12:40.597Z,13.32
2023-03-29T19:15:11.473Z,13.33
2023-03-29T19:17:40.813Z,13.31
2023-03-29T19:20:12.213Z,13.31
2023-03-29T19:22:41.106Z,13.28
2023-03-29T19:25:11.185Z,13.26
2023-03-29T19:27:41.637Z,13.24
2023-03-29T19:30:12.981Z,13.24
2023-03-29T19:32:41.566Z,13.21
2023-03-29T19:35:12.783Z,13.23
2023-03-29T19:37:41.644Z,13.23
2023-03-29T19:40:11.243Z,13.23
2023-03-29T19:42:41.923Z,13.24
2023-03-29T19:45:12.472Z,13.24
2023-03-29T19:47:44.004Z,13.25
2023-03-29T19:50:13.971Z,13.24
2023-03-29T19:52:43.065Z,13.22
2023-03-29T19:55:12.221Z,13.19
2023-03-29T19:57:42.590Z,13.17
2023-03-29T20:00:14.181Z,13.15
2023-03-29T20:02:43.251Z,13.15
2023-03-29T20:05:12.604Z,13.15
2023-03-29T20:07:41.052Z,13.17
2023-03-29T20:10:11.191Z,13.17
2023-03-29T20:12:41.418Z,13.17
2023-03-29T20:15:11.855Z,13.18
2023-03-29T20:17:40.980Z,13.17
2023-03-29T20:20:14.084Z,13.15
2023-03-29T20:22:45.720Z,13.13
2023-03-29T20:25:14.235Z,13.11
2023-03-29T20:27:44.183Z,13.08
2023-03-29T20:30:14.515Z,13.04
2023-03-29T20:32:43.010Z,13.02
2023-03-29T20:35:12.151Z,12.99
2023-03-29T20:37:40.496Z,12.97
2023-03-29T20:40:13.927Z,12.96
2023-03-29T20:42:47.046Z,12.92
2023-03-29T20:45:19.351Z,12.89
2023-03-29T20:47:50.531Z,12.86
2023-03-29T20:50:21.114Z,12.83
2023-03-29T20:52:49.580Z,12.81
2023-03-29T20:55:22.302Z,12.77
2023-03-29T20:57:55.311Z,12.76
2023-03-29T21:00:25.179Z,12.73
2023-03-29T21:02:55.319Z,12.72
2023-03-29T21:05:24.718Z,12.71
2023-03-29T21:07:55.528Z,12.70
2023-03-29T21:10:26.614Z,12.71
2023-03-29T21:13:00.416Z,12.73
2023-03-29T21:15:30.817Z,12.76
2023-03-29T21:18:00.034Z,12.73
2023-03-29T21:20:29.077Z,12.69
2023-03-29T21:23:01.855Z,12.65
2023-03-29T21:25:30.344Z,12.61
2023-03-29T21:28:00.636Z,12.57
2023-03-29T21:30:31.838Z,12.53
2023-03-29T21:33:01.090Z,12.48
2023-03-29T21:35:33.358Z,12.45
2023-03-29T21:38:02.253Z,12.43
2023-03-29T21:40:30.663Z,12.43
2023-03-29T21:43:00.642Z,12.46
2023-03-29T21:45:29.342Z,12.47
2023-03-29T21:47:58.644Z,12.46
2023-03-29T21:50:28.239Z,12.47
2023-03-29T21:52:57.844Z,12.45
2023-03-29T21:55:27.789Z,12.43
2023-03-29T21:57:56.469Z,12.43
2023-03-29T22:00:27.741Z,12.40
2023-03-29T22:02:57.165Z,12.39
2023-03-29T22:05:27.469Z,12.36
2023-03-29T22:07:58.786Z,12.34
2023-03-29T22:10:27.932Z,12.31
2023-03-29T22:12:57.093Z,12.30
2023-03-29T22:15:29.416Z,12.31
2023-03-29T22:17:59.835Z,12.29
2023-03-29T22:20:29.454Z,12.31
2023-03-29T22:22:58.210Z,12.33
2023-03-29T22:25:28.288Z,12.34
2023-03-29T22:27:57.016Z,12.31
2023-03-29T22:30:27.716Z,12.28
2023-03-29T22:32:56.781Z,12.27
2023-03-29T22:35:25.246Z,12.25
2023-03-29T22:37:53.847Z,12.30
2023-03-29T22:40:22.523Z,12.32
2023-03-29T22:42:51.271Z,12.35
2023-03-29T22:45:21.129Z,12.38
2023-03-29T22:47:51.173Z,12.40
2023-03-29T22:50:19.864Z,12.41
2023-03-29T22:52:48.485Z,12.43
2023-03-29T22:55:17.093Z,12.43
2023-03-29T22:57:45.877Z,12.43
2023-03-29T23:00:15.030Z,12.42
2023-03-29T23:02:43.620Z,12.40
2023-03-29T23:05:13.557Z,12.44
2023-03-29T23:07:41.967Z,12.45
2023-03-29T23:10:11.774Z,12.50
2023-03-29T23:12:43.001Z,12.52
2023-03-29T23:15:13.592Z,12.55
2023-03-29T23:17:42.118Z,12.58
2023-03-29T23:20:14.056Z,12.61
2023-03-29T23:22:43.164Z,12.62
2023-03-29T23:25:12.030Z,12.64
2023-03-29T23:27:40.484Z,12.66
2023-03-29T23:30:11.827Z,12.69
2023-03-29T23:32:41.117Z,12.71
2023-03-29T23:35:10.744Z,12.73
2023-03-29T23:37:40.630Z,12.75
2023-03-29T23:40:11.704Z,12.76
2023-03-29T23:42:41.373Z,12.77
2023-03-29T23:45:13.419Z,12.77
2023-03-29T23:47:42.624Z,12.78
2023-03-29T23:50:16.320Z,12.77
2023-03-29T23:52:47.226Z,12.78
2023-03-29T23:55:17.493Z,12.78
2023-03-29T23:57:46.419Z,12.80
